Time;durP1;ratioP1;P1;durP2;ratioP2;P2;SDS_P1;SDS_P2;PMS_P1;PMS_P2;Temp;Humidity;BMP_temperature;BMP_pressure;BME280_temperature;BME280_humidity;BME280_pressure;Samples;Min_cycle;Max_cycle;Signal;HPM_P1;HPM_P2
2022/01/02 09:36:50;;;;;;;51.35;25.20;;;;;;;;;;5121096;27;20115;-66
2022/01/02 09:39:16;;;;;;;49.92;25.85;;;;;;;;;;5111895;28;20562;-65
2022/01/02 09:41:42;;;;;;;48.22;25.90;;;;;;;;;;5098160;28;20024;-66
2022/01/02 09:44:08;;;;;;;50.35;26.23;;;;;;;;;;5103183;28;20036;-66
2022/01/02 09:46:35;;;;;;;51.80;25.70;;;;;;;;;;5108270;28;20390;-66
2022/01/02 09:49:03;;;;;;;44.92;23.70;;;;;;;;;;5115159;28;20733;-66
2022/01/02 09:51:29;;;;;;;47.30;26.25;;;;;;;;;;5110576;28;20020;-66
2022/01/02 09:53:56;;;;;;;44.13;24.35;;;;;;;;;;5107434;28;20035;-66
2022/01/02 09:56:23;;;;;;;41.80;23.67;;;;;;;;;;5109735;28;20497;-67
2022/01/02 09:58:50;;;;;;;42.63;23.50;;;;;;;;;;5116899;28;20019;-66
2022/01/02 10:01:18;;;;;;;42.30;23.70;;;;;;;;;;5108649;28;20028;-66
2022/01/02 10:03:50;;;;;;;45.08;24.35;;;;;;;;;;5115616;28;20455;-66
2022/01/02 10:06:17;;;;;;;45.88;23.67;;;;;;;;;;5114187;28;20482;-66
2022/01/02 10:08:43;;;;;;;40.17;22.08;;;;;;;;;;5115448;28;20027;-67
2022/01/02 10:11:16;;;;;;;43.55;23.58;;;;;;;;;;5112359;28;20027;-66
2022/01/02 10:13:45;;;;;;;45.53;23.85;;;;;;;;;;5112223;28;20060;-66
2022/01/02 10:16:27;;;;;;;43.70;22.85;;;;;;;;;;5112884;28;20077;-66
2022/01/02 10:18:54;;;;;;;43.78;23.50;;;;;;;;;;5114765;28;20036;-66
2022/01/02 10:21:34;;;;;;;44.83;23.85;;;;;;;;;;5115140;28;20023;-65
2022/01/02 10:24:15;;;;;;;44.83;23.05;;;;;;;;;;5112823;28;20015;-65
2022/01/02 10:26:42;;;;;;;42.17;22.55;;;;;;;;;;5116466;28;20020;-65
2022/01/02 10:29:12;;;;;;;45.50;23.75;;;;;;;;;;5114049;28;20115;-65
2022/01/02 10:31:38;;;;;;;44.50;23.17;;;;;;;;;;5111878;28;20097;-65
2022/01/02 10:34:04;;;;;;;43.00;22.65;;;;;;;;;;5116663;28;20026;-66
2022/01/02 10:36:32;;;;;;;42.03;22.33;;;;;;;;;;5120106;28;20082;-65
2022/01/02 10:38:59;;;;;;;41.45;21.70;;;;;;;;;;5115416;28;20380;-65
2022/01/02 10:41:33;;;;;;;41.13;22.67;;;;;;;;;;5115621;28;20110;-65
2022/01/02 10:44:23;;;;;;;42.38;21.63;;;;;;;;;;5112283;28;20023;-65
2022/01/02 10:47:08;;;;;;;41.83;22.60;;;;;;;;;;5097706;28;20039;-65
2022/01/02 10:49:53;;;;;;;38.75;21.00;;;;;;;;;;5098062;28;20027;-65
2022/01/02 10:52:22;;;;;;;40.35;21.08;;;;;;;;;;5094518;28;20034;-66
2022/01/02 10:54:49;;;;;;;39.80;21.83;;;;;;;;;;5106224;28;20535;-65
2022/01/02 10:57:15;;;;;;;35.60;20.42;;;;;;;;;;5100896;28;20035;-66
2022/01/02 10:59:43;;;;;;;38.40;21.50;;;;;;;;;;5099107;28;20041;-66
2022/01/02 11:02:12;;;;;;;35.72;19.88;;;;;;;;;;5082096;28;20235;-66
2022/01/02 11:04:43;;;;;;;35.88;19.10;;;;;;;;;;5097631;28;20064;-66
2022/01/02 11:07:10;;;;;;;37.80;19.92;;;;;;;;;;5101473;28;20130;-66
2022/01/02 11:09:37;;;;;;;32.38;19.38;;;;;;;;;;5101598;28;20398;-66
2022/01/02 11:12:03;;;;;;;36.28;18.80;;;;;;;;;;5099914;28;20077;-66
2022/01/02 11:14:31;;;;;;;34.08;19.35;;;;;;;;;;5100944;28;20148;-66
2022/01/02 11:16:57;;;;;;;34.58;19.85;;;;;;;;;;5098095;28;20035;-65
2022/01/02 11:19:25;;;;;;;35.90;19.33;;;;;;;;;;5097827;28;20331;-65
2022/01/02 11:21:54;;;;;;;33.38;18.67;;;;;;;;;;5095299;28;20032;-66
2022/01/02 11:24:32;;;;;;;31.83;18.42;;;;;;;;;;5101935;28;20165;-65
2022/01/02 11:27:06;;;;;;;29.63;16.90;;;;;;;;;;5099817;28;20028;-66
2022/01/02 11:29:34;;;;;;;30.38;18.42;;;;;;;;;;5103008;28;20107;-66
2022/01/02 11:32:00;;;;;;;29.20;17.92;;;;;;;;;;5092540;28;20450;-66
2022/01/02 11:34:28;;;;;;;32.35;17.90;;;;;;;;;;5088127;28;20055;-66
2022/01/02 11:37:14;;;;;;;32.90;18.15;;;;;;;;;;5094134;28;20032;-66
2022/01/02 11:39:53;;;;;;;29.70;16.75;;;;;;;;;;5100959;28;20078;-66
2022/01/02 11:42:40;;;;;;;29.42;16.90;;;;;;;;;;5083879;28;20028;-66
2022/01/02 11:45:26;;;;;;;25.38;15.93;;;;;;;;;;5101581;28;20042;-66
2022/01/02 11:47:53;;;;;;;29.75;17.38;;;;;;;;;;5075310;28;20040;-66
2022/01/02 11:50:32;;;;;;;25.63;16.00;;;;;;;;;;5094303;28;20146;-66
2022/01/02 11:53:17;;;;;;;27.25;15.70;;;;;;;;;;5091381;28;20105;-65
2022/01/02 11:55:49;;;;;;;26.52;15.52;;;;;;;;;;5093829;28;20043;-65
2022/01/02 11:58:35;;;;;;;25.77;15.10;;;;;;;;;;5096839;28;20024;-66
2022/01/02 12:01:01;;;;;;;25.98;15.23;;;;;;;;;;5082221;28;20449;-66
2022/01/02 12:03:44;;;;;;;24.00;14.88;;;;;;;;;;5097158;28;20031;-66
2022/01/02 12:06:19;;;;;;;25.90;14.95;;;;;;;;;;5090511;28;20052;-66
2022/01/02 12:08:46;;;;;;;25.08;14.88;;;;;;;;;;5093522;28;20024;-66
2022/01/02 12:11:30;;;;;;;26.83;15.98;;;;;;;;;;5092852;28;20036;-66
2022/01/02 12:14:23;;;;;;;27.55;15.90;;;;;;;;;;5089362;28;20016;-66
2022/01/02 12:17:00;;;;;;;27.58;15.10;;;;;;;;;;5090321;28;20035;-65
2022/01/02 12:19:27;;;;;;;24.15;14.73;;;;;;;;;;5092349;28;20548;-66
2022/01/02 12:22:11;;;;;;;25.70;15.40;;;;;;;;;;5090863;28;20539;-66
2022/01/02 12:24:38;;;;;;;26.65;15.30;;;;;;;;;;5092056;28;20103;-66
2022/01/02 12:27:08;;;;;;;23.67;14.23;;;;;;;;;;5070944;28;20048;-66
2022/01/02 12:29:34;;;;;;;23.02;13.50;;;;;;;;;;5087353;28;20029;-67
2022/01/02 12:32:01;;;;;;;24.23;14.18;;;;;;;;;;5091484;28;20028;-67
2022/01/02 12:34:30;;;;;;;24.02;14.18;;;;;;;;;;5090227;28;20388;-66
2022/01/02 12:36:58;;;;;;;24.50;13.38;;;;;;;;;;5087215;28;20028;-66
2022/01/02 12:39:40;;;;;;;21.00;12.82;;;;;;;;;;5089361;28;20549;-67
2022/01/02 12:42:08;;;;;;;19.60;12.18;;;;;;;;;;5091173;28;20024;-67
2022/01/02 12:44:37;;;;;;;21.05;12.57;;;;;;;;;;5092663;28;20479;-67
2022/01/02 12:47:08;;;;;;;21.25;12.10;;;;;;;;;;5069830;28;20111;-66
2022/01/02 12:49:39;;;;;;;23.00;13.50;;;;;;;;;;5072126;28;20024;-67
2022/01/02 12:52:12;;;;;;;21.17;12.32;;;;;;;;;;5089487;28;20103;-67
2022/01/02 12:54:45;;;;;;;18.23;11.52;;;;;;;;;;5091248;28;20028;-67
2022/01/02 12:57:13;;;;;;;17.75;10.32;;;;;;;;;;5091681;28;20055;-67
2022/01/02 12:59:49;;;;;;;20.02;10.63;;;;;;;;;;5088488;28;20081;-67
2022/01/02 13:02:16;;;;;;;17.65;10.00;;;;;;;;;;5087451;28;20028;-66
2022/01/02 13:04:44;;;;;;;15.65;9.60;;;;;;;;;;5088262;28;20846;-66
2022/01/02 13:07:14;;;;;;;14.13;9.05;;;;;;;;;;5089036;28;20030;-67
2022/01/02 13:09:40;;;;;;;13.38;8.93;;;;;;;;;;5087725;28;20020;-66
2022/01/02 13:12:16;;;;;;;14.27;9.10;;;;;;;;;;5092270;28;20078;-67
2022/01/02 13:15:05;;;;;;;15.50;8.55;;;;;;;;;;5088285;28;20487;-67
2022/01/02 13:17:31;;;;;;;16.70;9.07;;;;;;;;;;5088842;28;20952;-67
2022/01/02 13:20:03;;;;;;;14.35;8.82;;;;;;;;;;5086437;28;20483;-67
2022/01/02 13:22:30;;;;;;;15.60;9.63;;;;;;;;;;5069490;28;20032;-67
2022/01/02 13:24:56;;;;;;;13.45;8.65;;;;;;;;;;5087663;28;20017;-66
2022/01/02 13:27:26;;;;;;;13.23;7.90;;;;;;;;;;5071414;28;20534;-67
2022/01/02 13:30:03;;;;;;;14.48;8.68;;;;;;;;;;5087193;28;20025;-66
2022/01/02 13:32:37;;;;;;;13.23;7.85;;;;;;;;;;5089007;28;20027;-66
2022/01/02 13:35:08;;;;;;;12.80;8.45;;;;;;;;;;5089134;28;20040;-66
2022/01/02 13:37:37;;;;;;;12.23;8.05;;;;;;;;;;5070479;28;20429;-66
2022/01/02 13:40:05;;;;;;;10.60;7.10;;;;;;;;;;5090422;28;20016;-66
2022/01/02 13:42:35;;;;;;;11.63;7.40;;;;;;;;;;5071746;28;20133;-66
2022/01/02 13:45:12;;;;;;;12.70;6.95;;;;;;;;;;5089232;28;20031;-67
2022/01/02 13:47:39;;;;;;;11.60;6.78;;;;;;;;;;5086825;28;20078;-67
2022/01/02 13:50:05;;;;;;;8.82;6.00;;;;;;;;;;5090213;28;20059;-67
2022/01/02 13:52:31;;;;;;;11.07;5.85;;;;;;;;;;5088769;28;20366;-66
2022/01/02 13:55:11;;;;;;;9.38;5.32;;;;;;;;;;5090300;28;20091;-67
2022/01/02 13:57:37;;;;;;;8.48;5.00;;;;;;;;;;5082272;28;20119;-66
2022/01/02 14:00:23;;;;;;;7.70;4.95;;;;;;;;;;5092208;28;20016;-66
2022/01/02 14:02:52;;;;;;;9.52;5.63;;;;;;;;;;5093971;28;20100;-67
2022/01/02 14:05:22;;;;;;;7.95;5.50;;;;;;;;;;5094395;28;20021;-67
2022/01/02 14:07:49;;;;;;;10.65;5.75;;;;;;;;;;5074975;28;20105;-67
2022/01/02 14:10:16;;;;;;;11.25;6.55;;;;;;;;;;5098135;28;20066;-66
2022/01/02 14:12:43;;;;;;;9.05;6.03;;;;;;;;;;5100063;28;20032;-67
2022/01/02 14:15:16;;;;;;;8.02;5.10;;;;;;;;;;5098155;28;20102;-67
2022/01/02 14:17:46;;;;;;;9.13;4.20;;;;;;;;;;5097470;28;20065;-67
2022/01/02 14:20:14;;;;;;;9.32;6.03;;;;;;;;;;5080604;28;20089;-67
2022/01/02 14:22:42;;;;;;;9.27;4.82;;;;;;;;;;5099149;28;20024;-67
2022/01/02 14:25:08;;;;;;;9.55;5.38;;;;;;;;;;5101918;28;20031;-67
2022/01/02 14:27:34;;;;;;;13.82;5.03;;;;;;;;;;5105836;28;20024;-67
2022/01/02 14:30:01;;;;;;;7.45;4.65;;;;;;;;;;5094601;28;20020;-67
2022/01/02 14:32:28;;;;;;;11.65;5.28;;;;;;;;;;5103277;28;20027;-67
2022/01/02 14:34:54;;;;;;;15.50;6.07;;;;;;;;;;5100065;28;20059;-67
2022/01/02 14:37:21;;;;;;;11.85;5.95;;;;;;;;;;5099798;28;20495;-67
2022/01/02 14:39:47;;;;;;;14.38;8.05;;;;;;;;;;5087000;28;20034;-67
2022/01/02 14:42:13;;;;;;;12.85;7.45;;;;;;;;;;5101373;28;20028;-67
2022/01/02 14:44:40;;;;;;;18.98;8.52;;;;;;;;;;5099182;28;20027;-67
2022/01/02 14:47:07;;;;;;;13.68;7.45;;;;;;;;;;5095773;28;20108;-66
2022/01/02 14:49:34;;;;;;;10.57;5.68;;;;;;;;;;5095901;28;20027;-67
2022/01/02 14:52:00;;;;;;;10.15;4.80;;;;;;;;;;5081021;28;20407;-67
2022/01/02 14:54:26;;;;;;;7.80;4.25;;;;;;;;;;5101228;28;20059;-67
2022/01/02 14:56:53;;;;;;;9.88;5.15;;;;;;;;;;5098903;28;20019;-67
2022/01/02 14:59:19;;;;;;;13.23;4.93;;;;;;;;;;5102124;28;20030;-67
2022/01/02 15:01:45;;;;;;;9.55;4.13;;;;;;;;;;5081170;28;20031;-67
2022/01/02 15:04:11;;;;;;;8.45;4.80;;;;;;;;;;5082749;28;20024;-67
2022/01/02 15:06:38;;;;;;;9.45;3.90;;;;;;;;;;5098220;28;20123;-66
2022/01/02 15:09:04;;;;;;;8.88;4.03;;;;;;;;;;5100346;28;20509;-66
2022/01/02 15:11:30;;;;;;;8.65;4.15;;;;;;;;;;5105558;28;20489;-67
2022/01/02 15:13:57;;;;;;;11.23;4.85;;;;;;;;;;5099786;28;20110;-67
2022/01/02 15:16:23;;;;;;;8.07;3.88;;;;;;;;;;5098911;28;20411;-67
2022/01/02 15:18:50;;;;;;;8.68;4.20;;;;;;;;;;5095628;28;20082;-67
2022/01/02 15:21:16;;;;;;;11.77;5.00;;;;;;;;;;5098849;28;20509;-66
2022/01/02 15:23:42;;;;;;;8.55;4.07;;;;;;;;;;5095394;28;20081;-66
2022/01/02 15:26:09;;;;;;;10.27;5.00;;;;;;;;;;5090723;28;20059;-66
2022/01/02 15:28:36;;;;;;;8.30;4.63;;;;;;;;;;5089620;28;20020;-66
2022/01/02 15:31:03;;;;;;;8.65;5.22;;;;;;;;;;5088773;28;20024;-67
2022/01/02 15:33:29;;;;;;;9.65;4.55;;;;;;;;;;5092792;28;20356;-67
2022/01/02 15:35:56;;;;;;;32.25;17.92;;;;;;;;;;5088907;28;20044;-67
2022/01/02 15:38:22;;;;;;;136.45;70.28;;;;;;;;;;5091168;28;20509;-68
2022/01/02 15:40:48;;;;;;;219.75;124.57;;;;;;;;;;5092684;28;20032;-67
2022/01/02 15:43:14;;;;;;;48.58;26.92;;;;;;;;;;5091529;28;20024;-66
2022/01/02 15:45:41;;;;;;;14.07;6.25;;;;;;;;;;5093675;28;20447;-66
2022/01/02 15:48:07;;;;;;;10.70;5.80;;;;;;;;;;5094897;28;20498;-67
2022/01/02 15:50:35;;;;;;;11.88;5.72;;;;;;;;;;5096396;28;20102;-67
2022/01/02 15:53:01;;;;;;;16.20;5.85;;;;;;;;;;5098567;28;20016;-67
2022/01/02 15:55:27;;;;;;;9.15;5.68;;;;;;;;;;5092371;28;20032;-67
2022/01/02 15:57:54;;;;;;;11.45;5.60;;;;;;;;;;5100413;28;20031;-67
2022/01/02 16:00:20;;;;;;;13.13;6.30;;;;;;;;;;5100590;28;20045;-67
2022/01/02 16:02:46;;;;;;;11.98;5.93;;;;;;;;;;5086980;28;20047;-66
2022/01/02 16:05:12;;;;;;;11.48;5.82;;;;;;;;;;5092931;28;20040;-66
2022/01/02 16:07:38;;;;;;;11.90;5.55;;;;;;;;;;5087281;28;20031;-65
2022/01/02 16:10:05;;;;;;;9.70;6.00;;;;;;;;;;5089249;28;20096;-65
2022/01/02 16:12:31;;;;;;;9.57;5.85;;;;;;;;;;5092672;28;20024;-65
2022/01/02 16:14:58;;;;;;;9.70;5.75;;;;;;;;;;5093938;28;20107;-65
2022/01/02 16:17:24;;;;;;;12.43;5.10;;;;;;;;;;5093356;28;20038;-66
2022/01/02 16:19:50;;;;;;;12.73;5.97;;;;;;;;;;5092471;28;20024;-66
2022/01/02 16:22:16;;;;;;;13.15;6.15;;;;;;;;;;5091899;28;20039;-66
2022/01/02 16:24:42;;;;;;;11.27;6.13;;;;;;;;;;5097536;28;20028;-66
2022/01/02 16:27:08;;;;;;;12.80;6.00;;;;;;;;;;5094425;28;20477;-66
2022/01/02 16:29:35;;;;;;;11.80;5.78;;;;;;;;;;5100554;28;20102;-66
2022/01/02 16:32:02;;;;;;;13.63;6.80;;;;;;;;;;5094791;28;20066;-66
2022/01/02 16:34:30;;;;;;;17.48;9.43;;;;;;;;;;5096991;28;20032;-66
2022/01/02 16:36:56;;;;;;;21.60;11.88;;;;;;;;;;5101844;28;20135;-67
2022/01/02 16:39:22;;;;;;;16.02;11.10;;;;;;;;;;5082074;28;20035;-66
2022/01/02 16:41:49;;;;;;;17.67;9.38;;;;;;;;;;5097036;28;20509;-66
2022/01/02 16:44:18;;;;;;;15.18;8.65;;;;;;;;;;5095050;28;20016;-66
2022/01/02 16:46:45;;;;;;;17.10;8.25;;;;;;;;;;5097603;28;20111;-66
2022/01/02 16:49:13;;;;;;;12.80;7.15;;;;;;;;;;5098359;28;20023;-66
2022/01/02 16:51:39;;;;;;;12.82;7.65;;;;;;;;;;5100959;28;20066;-66
2022/01/02 16:54:05;;;;;;;16.70;8.75;;;;;;;;;;5095614;28;20099;-67
2022/01/02 16:56:34;;;;;;;13.48;7.50;;;;;;;;;;5098769;28;20028;-67
2022/01/02 16:59:00;;;;;;;11.07;6.50;;;;;;;;;;5096830;28;20532;-67
2022/01/02 17:01:26;;;;;;;15.70;7.38;;;;;;;;;;5097250;28;20068;-67
2022/01/02 17:03:53;;;;;;;16.70;7.97;;;;;;;;;;5083518;28;20031;-67
2022/01/02 17:06:19;;;;;;;18.30;9.13;;;;;;;;;;5095982;28;20036;-67
2022/01/02 17:08:45;;;;;;;18.17;10.82;;;;;;;;;;5100754;28;20053;-67
2022/01/02 17:11:11;;;;;;;17.30;9.10;;;;;;;;;;5097580;28;20068;-67
2022/01/02 17:13:38;;;;;;;24.33;12.00;;;;;;;;;;5097918;28;20024;-66
2022/01/02 17:16:05;;;;;;;36.42;16.92;;;;;;;;;;5099831;28;20548;-67
2022/01/02 17:18:31;;;;;;;40.33;23.60;;;;;;;;;;5102213;28;20066;-66
2022/01/02 17:20:57;;;;;;;44.78;23.50;;;;;;;;;;5096369;28;20035;-66
2022/01/02 17:23:23;;;;;;;40.33;18.77;;;;;;;;;;5096729;28;20031;-68
2022/01/02 17:25:49;;;;;;;37.95;14.95;;;;;;;;;;5099481;28;20042;-66
2022/01/02 17:28:15;;;;;;;29.55;12.35;;;;;;;;;;5080423;28;27265;-66
2022/01/02 17:30:42;;;;;;;32.17;13.13;;;;;;;;;;5101758;28;20038;-66
2022/01/02 17:33:09;;;;;;;34.97;12.40;;;;;;;;;;5092576;28;20390;-66
2022/01/02 17:35:37;;;;;;;22.95;10.20;;;;;;;;;;5086638;28;20059;-66
2022/01/02 17:38:03;;;;;;;21.80;8.40;;;;;;;;;;5097281;28;20545;-67
2022/01/02 17:40:29;;;;;;;21.27;10.80;;;;;;;;;;5078942;28;20047;-65
2022/01/02 17:42:56;;;;;;;24.27;10.85;;;;;;;;;;5099330;28;20021;-65
2022/01/02 17:45:22;;;;;;;29.95;15.50;;;;;;;;;;5098604;28;20507;-66
2022/01/02 17:47:48;;;;;;;32.22;16.77;;;;;;;;;;5096853;28;20513;-66
2022/01/02 17:50:15;;;;;;;16.45;9.60;;;;;;;;;;5094552;28;20036;-66
2022/01/02 17:52:42;;;;;;;17.00;10.18;;;;;;;;;;5088557;28;20040;-68
2022/01/02 17:55:09;;;;;;;20.27;11.75;;;;;;;;;;5089193;28;20080;-67
2022/01/02 17:57:35;;;;;;;21.08;10.93;;;;;;;;;;5085215;28;20035;-66
2022/01/02 18:00:01;;;;;;;19.77;10.95;;;;;;;;;;5091460;28;20499;-67
2022/01/02 18:02:27;;;;;;;19.25;11.05;;;;;;;;;;5096691;28;20020;-67
2022/01/02 18:04:54;;;;;;;17.98;9.43;;;;;;;;;;5103267;28;20028;-66
2022/01/02 18:07:21;;;;;;;17.88;9.25;;;;;;;;;;5082534;28;20415;-67
2022/01/02 18:09:51;;;;;;;21.75;9.65;;;;;;;;;;5101365;28;20103;-67
2022/01/02 18:12:19;;;;;;;14.13;8.25;;;;;;;;;;5101600;28;20107;-67
2022/01/02 18:14:46;;;;;;;17.00;7.53;;;;;;;;;;5100585;28;20027;-66
2022/01/02 18:17:12;;;;;;;16.90;8.25;;;;;;;;;;5104468;28;20066;-66
2022/01/02 18:19:38;;;;;;;16.38;7.95;;;;;;;;;;5098110;28;20028;-66
2022/01/02 18:22:04;;;;;;;14.98;7.68;;;;;;;;;;5102639;28;20024;-68
2022/01/02 18:24:32;;;;;;;16.77;7.93;;;;;;;;;;5098064;28;20019;-67
2022/01/02 18:27:00;;;;;;;16.17;7.45;;;;;;;;;;5100514;28;20043;-67
2022/01/02 18:29:27;;;;;;;16.55;7.15;;;;;;;;;;5102892;28;20017;-68
2022/01/02 18:31:54;;;;;;;15.30;7.00;;;;;;;;;;5101036;28;20040;-68
2022/01/02 18:34:20;;;;;;;17.48;6.75;;;;;;;;;;5097707;28;20016;-66
2022/01/02 18:36:47;;;;;;;14.55;6.97;;;;;;;;;;5099364;28;20515;-66
2022/01/02 18:39:14;;;;;;;17.35;7.15;;;;;;;;;;5098064;28;20031;-68
2022/01/02 18:41:41;;;;;;;18.05;7.68;;;;;;;;;;5096304;28;20521;-67
2022/01/02 18:44:07;;;;;;;21.45;6.82;;;;;;;;;;5101650;28;20043;-67
2022/01/02 18:46:35;;;;;;;14.00;5.85;;;;;;;;;;5098026;28;20039;-65
2022/01/02 18:49:01;;;;;;;15.70;6.78;;;;;;;;;;5094893;28;20016;-66
2022/01/02 18:51:31;;;;;;;19.02;8.15;;;;;;;;;;5100007;28;20027;-67
2022/01/02 18:53:59;;;;;;;19.08;7.53;;;;;;;;;;5091736;28;20031;-65
2022/01/02 18:56:26;;;;;;;20.02;7.60;;;;;;;;;;5092125;28;20313;-68
2022/01/02 18:58:52;;;;;;;26.30;8.60;;;;;;;;;;5091566;28;20491;-68
2022/01/02 19:01:18;;;;;;;16.83;6.75;;;;;;;;;;5093541;28;20034;-69
2022/01/02 19:03:46;;;;;;;16.98;7.03;;;;;;;;;;5097352;28;20020;-68
2022/01/02 19:06:13;;;;;;;32.55;15.00;;;;;;;;;;5093659;28;20063;-67
2022/01/02 19:08:39;;;;;;;23.40;12.38;;;;;;;;;;5100191;28;20042;-68
2022/01/02 19:11:06;;;;;;;20.33;9.63;;;;;;;;;;5099995;28;20121;-68
2022/01/02 19:13:32;;;;;;;17.45;8.02;;;;;;;;;;5092777;28;20024;-67
2022/01/02 19:16:00;;;;;;;25.17;8.13;;;;;;;;;;5098834;28;20036;-68
2022/01/02 19:18:27;;;;;;;16.17;9.32;;;;;;;;;;5095364;28;20027;-67
2022/01/02 19:20:54;;;;;;;18.02;9.40;;;;;;;;;;5084491;28;20033;-67
2022/01/02 19:23:22;;;;;;;21.25;7.85;;;;;;;;;;5098127;28;20036;-67
2022/01/02 19:25:50;;;;;;;14.55;8.02;;;;;;;;;;5099555;28;20040;-67
2022/01/02 19:28:17;;;;;;;21.50;7.20;;;;;;;;;;5099799;28;20098;-67
2022/01/02 19:30:43;;;;;;;14.68;6.85;;;;;;;;;;5097238;28;20039;-66
2022/01/02 19:33:09;;;;;;;16.25;7.05;;;;;;;;;;5095613;28;20470;-67
2022/01/02 19:35:36;;;;;;;16.75;7.10;;;;;;;;;;5095414;28;20124;-67
2022/01/02 19:38:02;;;;;;;19.52;8.05;;;;;;;;;;5094317;28;20024;-66
2022/01/02 19:40:29;;;;;;;19.13;8.27;;;;;;;;;;5097707;28;20495;-67
2022/01/02 19:42:55;;;;;;;15.73;8.63;;;;;;;;;;5097159;28;20024;-66
2022/01/02 19:45:22;;;;;;;21.02;8.93;;;;;;;;;;5095255;28;20445;-65
2022/01/02 19:47:50;;;;;;;24.00;11.02;;;;;;;;;;5087974;28;20031;-66
2022/01/02 19:50:16;;;;;;;45.92;24.90;;;;;;;;;;5095132;28;20421;-66
2022/01/02 19:52:43;;;;;;;43.28;20.73;;;;;;;;;;5079561;28;20031;-66
2022/01/02 19:55:11;;;;;;;33.15;16.40;;;;;;;;;;5094503;28;20036;-66
2022/01/02 19:57:38;;;;;;;25.20;13.52;;;;;;;;;;5098804;28;20051;-65
2022/01/02 20:00:05;;;;;;;29.48;17.23;;;;;;;;;;5096934;28;20485;-65
2022/01/02 20:02:31;;;;;;;28.38;13.80;;;;;;;;;;5103434;28;20019;-65
2022/01/02 20:04:58;;;;;;;26.15;12.70;;;;;;;;;;5092876;28;20035;-66
2022/01/02 20:07:26;;;;;;;23.77;13.13;;;;;;;;;;5099006;28;20188;-66
2022/01/02 20:09:52;;;;;;;26.88;13.68;;;;;;;;;;5096216;28;20035;-65
2022/01/02 20:12:19;;;;;;;28.50;12.50;;;;;;;;;;5093638;28;20078;-66
2022/01/02 20:14:45;;;;;;;27.00;13.30;;;;;;;;;;5068700;28;20054;-66
2022/01/02 20:17:11;;;;;;;34.75;14.23;;;;;;;;;;5094101;28;20028;-65
2022/01/02 20:19:37;;;;;;;25.70;11.85;;;;;;;;;;5092264;28;20073;-65
2022/01/02 20:22:04;;;;;;;30.23;11.95;;;;;;;;;;5100421;28;20502;-66
2022/01/02 20:24:30;;;;;;;24.25;10.32;;;;;;;;;;5092166;28;20024;-66
2022/01/02 20:26:56;;;;;;;25.90;9.77;;;;;;;;;;5095665;28;20187;-65
2022/01/02 20:29:22;;;;;;;20.35;8.00;;;;;;;;;;5092784;28;20020;-66
2022/01/02 20:31:48;;;;;;;17.90;8.50;;;;;;;;;;5090019;28;20119;-65
2022/01/02 20:34:15;;;;;;;20.58;8.27;;;;;;;;;;5089946;28;20027;-65
2022/01/02 20:36:41;;;;;;;16.30;8.35;;;;;;;;;;5096192;28;20043;-66
2022/01/02 20:39:13;;;;;;;21.92;8.40;;;;;;;;;;5094927;28;20391;-65
2022/01/02 20:41:39;;;;;;;25.40;9.65;;;;;;;;;;5094071;28;20019;-66
2022/01/02 20:44:06;;;;;;;18.73;9.00;;;;;;;;;;5094385;28;20027;-66
2022/01/02 20:46:32;;;;;;;21.90;9.25;;;;;;;;;;5094214;28;20097;-66
2022/01/02 20:48:58;;;;;;;18.70;8.35;;;;;;;;;;5093102;28;20030;-66
2022/01/02 20:51:28;;;;;;;23.05;9.15;;;;;;;;;;5095538;28;20105;-64
2022/01/02 20:53:56;;;;;;;23.25;9.30;;;;;;;;;;5095042;28;20364;-65
2022/01/02 20:56:22;;;;;;;20.25;7.90;;;;;;;;;;5096840;28;20026;-64
2022/01/02 20:58:49;;;;;;;22.13;8.00;;;;;;;;;;5087182;28;20522;-65
2022/01/02 21:01:19;;;;;;;20.33;9.77;;;;;;;;;;5090504;28;20846;-65
2022/01/02 21:03:47;;;;;;;22.23;9.60;;;;;;;;;;5092671;28;20028;-65
2022/01/02 21:06:13;;;;;;;20.23;8.85;;;;;;;;;;5088441;28;20032;-64
2022/01/02 21:08:41;;;;;;;18.77;9.43;;;;;;;;;;5094449;28;20024;-65
2022/01/02 21:11:08;;;;;;;19.55;10.10;;;;;;;;;;5096891;28;20039;-67
2022/01/02 21:13:35;;;;;;;26.75;9.65;;;;;;;;;;5093793;28;20093;-65
2022/01/02 21:16:04;;;;;;;17.75;8.00;;;;;;;;;;5089341;28;20019;-66
2022/01/02 21:18:34;;;;;;;19.70;8.77;;;;;;;;;;5094532;28;20019;-65
2022/01/02 21:21:01;;;;;;;22.47;9.97;;;;;;;;;;5080294;28;20089;-65
2022/01/02 21:23:28;;;;;;;18.67;8.95;;;;;;;;;;5093422;28;20298;-65
2022/01/02 21:25:54;;;;;;;21.95;10.15;;;;;;;;;;5090973;28;20040;-65
2022/01/02 21:28:21;;;;;;;26.48;11.82;;;;;;;;;;5091628;28;20019;-65
2022/01/02 21:30:51;;;;;;;39.30;19.27;;;;;;;;;;5094782;28;20036;-65
2022/01/02 21:33:20;;;;;;;49.87;23.50;;;;;;;;;;5094498;28;21357;-65
2022/01/02 21:35:50;;;;;;;68.20;30.73;;;;;;;;;;5099882;28;20490;-65
2022/01/02 21:38:17;;;;;;;35.42;17.17;;;;;;;;;;5090835;28;20123;-65
2022/01/02 21:40:45;;;;;;;35.45;17.48;;;;;;;;;;5085141;28;20032;-66
2022/01/02 21:43:17;;;;;;;30.10;13.98;;;;;;;;;;5088633;28;20044;-65
2022/01/02 21:45:47;;;;;;;31.10;13.52;;;;;;;;;;5090334;28;20036;-64
2022/01/02 21:48:13;;;;;;;28.90;14.40;;;;;;;;;;5092260;28;20545;-65
2022/01/02 21:50:41;;;;;;;21.83;11.13;;;;;;;;;;5089505;28;20119;-64
2022/01/02 21:53:08;;;;;;;22.13;10.57;;;;;;;;;;5087451;28;20020;-64
2022/01/02 21:55:35;;;;;;;22.63;10.70;;;;;;;;;;5083533;28;20039;-64
2022/01/02 21:58:01;;;;;;;26.55;10.57;;;;;;;;;;5090533;28;20024;-64
2022/01/02 22:00:29;;;;;;;21.67;10.70;;;;;;;;;;5083610;28;20550;-65
2022/01/02 22:02:57;;;;;;;26.30;10.98;;;;;;;;;;5085654;28;20043;-64
2022/01/02 22:05:23;;;;;;;20.20;11.00;;;;;;;;;;5086895;28;20414;-64
2022/01/02 22:07:50;;;;;;;22.38;11.07;;;;;;;;;;5084622;28;20030;-64
2022/01/02 22:10:16;;;;;;;24.67;11.82;;;;;;;;;;5087617;28;20518;-65
2022/01/02 22:12:42;;;;;;;23.02;10.52;;;;;;;;;;5089563;28;20032;-65
2022/01/02 22:15:09;;;;;;;27.85;11.10;;;;;;;;;;5092971;28;20441;-65
2022/01/02 22:17:36;;;;;;;24.02;11.30;;;;;;;;;;5089601;28;20027;-65
2022/01/02 22:20:03;;;;;;;21.35;10.57;;;;;;;;;;5091060;28;20031;-65
2022/01/02 22:22:36;;;;;;;25.45;11.43;;;;;;;;;;5086852;28;20028;-64
2022/01/02 22:25:04;;;;;;;28.60;12.77;;;;;;;;;;5084717;28;20023;-64
2022/01/02 22:27:31;;;;;;;23.85;13.07;;;;;;;;;;5087695;28;20027;-64
2022/01/02 22:29:58;;;;;;;26.73;13.40;;;;;;;;;;5067519;28;20052;-63
2022/01/02 22:32:31;;;;;;;25.95;12.27;;;;;;;;;;5091350;28;20032;-64
2022/01/02 22:35:02;;;;;;;21.85;12.43;;;;;;;;;;5091538;28;20097;-63
2022/01/02 22:37:30;;;;;;;23.10;13.02;;;;;;;;;;5088049;28;20123;-64
2022/01/02 22:39:57;;;;;;;28.95;12.38;;;;;;;;;;5086087;28;20394;-64
2022/01/02 22:42:24;;;;;;;22.73;12.57;;;;;;;;;;5089375;28;20017;-64
2022/01/02 22:44:50;;;;;;;23.33;12.35;;;;;;;;;;5097263;28;20028;-63
2022/01/02 22:47:18;;;;;;;26.90;11.73;;;;;;;;;;5098133;28;20146;-64
2022/01/02 22:49:46;;;;;;;21.73;12.57;;;;;;;;;;5093109;28;20075;-64
2022/01/02 22:52:12;;;;;;;27.08;12.52;;;;;;;;;;5092420;28;20028;-65
2022/01/02 22:54:42;;;;;;;25.42;12.60;;;;;;;;;;5094628;28;20040;-65
2022/01/02 22:57:08;;;;;;;21.35;11.68;;;;;;;;;;5090866;28;20020;-65
